Time;durP1;ratioP1;P1;durP2;ratioP2;P2;SDS_P1;SDS_P2;PMS_P1;PMS_P2;Temp;Humidity;BMP_temperature;BMP_pressure;BME280_temperature;BME280_humidity;BME280_pressure;Samples;Min_cycle;Max_cycle;Signal;HPM_P1;HPM_P2
2022/08/19 00:00:50;;;;;;;13.05;9.65;;;;;;;28.00;43.04;99232.53;4355993;32;35127;-74
2022/08/19 00:03:36;;;;;;;10.88;9.32;;;;;;;28.07;43.00;99238.00;4360324;32;34763;-74
2022/08/19 00:06:23;;;;;;;13.25;8.88;;;;;;;28.24;42.82;99236.00;4359154;32;35001;-74
2022/08/19 00:09:12;;;;;;;14.98;9.88;;;;;;;28.13;43.04;99229.81;4360475;32;34942;-73
2022/08/19 00:11:59;;;;;;;13.05;9.43;;;;;;;27.80;43.82;99224.97;4349941;32;35345;-74
2022/08/19 00:14:45;;;;;;;12.90;9.55;;;;;;;28.01;43.64;99225.69;4360608;32;34616;-74
2022/08/19 00:17:32;;;;;;;12.77;9.50;;;;;;;28.08;44.04;99228.31;4352570;32;34894;-73
2022/08/19 00:20:20;;;;;;;13.18;9.60;;;;;;;28.21;43.67;99243.28;4360833;32;35570;-74
2022/08/19 00:23:06;;;;;;;13.98;9.55;;;;;;;28.06;44.20;99230.78;4352422;32;35050;-74
2022/08/19 00:25:53;;;;;;;11.93;10.13;;;;;;;27.76;44.90;99227.03;4353181;32;35649;-74
2022/08/19 00:28:39;;;;;;;11.93;10.05;;;;;;;27.63;45.03;99226.13;4361340;32;34994;-73
2022/08/19 00:31:27;;;;;;;14.38;9.30;;;;;;;27.13;46.71;99233.63;4361200;32;34702;-73
2022/08/19 00:34:14;;;;;;;14.20;9.93;;;;;;;27.43;46.11;99233.84;4362787;32;34135;-74
2022/08/19 00:37:00;;;;;;;13.00;9.70;;;;;;;27.41;46.11;99233.47;4361710;32;33621;-73
2022/08/19 00:39:47;;;;;;;12.07;8.93;;;;;;;27.37;46.43;99242.00;4360856;32;34775;-73
2022/08/19 00:42:34;;;;;;;14.32;10.20;;;;;;;27.05;46.90;99239.84;4361549;32;35583;-73
2022/08/19 00:45:24;;;;;;;10.30;9.05;;;;;;;27.51;45.52;99235.28;4361208;32;34196;-73
2022/08/19 00:48:10;;;;;;;15.50;9.73;;;;;;;27.44;46.39;99232.63;4355576;32;35630;-73
2022/08/19 00:51:00;;;;;;;12.60;9.30;;;;;;;26.89;47.77;99227.28;4354511;32;34947;-74
2022/08/19 00:53:47;;;;;;;13.38;9.52;;;;;;;26.94;47.06;99220.38;4364217;32;35572;-73
2022/08/19 00:56:33;;;;;;;16.05;9.88;;;;;;;27.29;46.05;99218.84;4362678;32;35143;-73
2022/08/19 00:59:20;;;;;;;11.45;9.73;;;;;;;27.22;45.90;99224.63;4362423;32;34745;-74
2022/08/19 01:02:27;;;;;;;13.50;9.70;;;;;;;27.25;45.95;99231.41;4364266;32;35968;-74
2022/08/19 01:05:20;;;;;;;13.20;9.05;;;;;;;27.31;45.79;99230.47;4361850;32;34888;-73
2022/08/19 01:08:07;;;;;;;13.05;10.00;;;;;;;26.98;46.69;99217.47;4361175;32;34458;-73
2022/08/19 01:10:56;;;;;;;14.48;10.07;;;;;;;27.46;45.54;99224.53;4356616;32;34342;-74
2022/08/19 01:13:43;;;;;;;14.95;10.18;;;;;;;26.95;47.17;99221.16;4362535;32;35009;-74
2022/08/19 01:16:36;;;;;;;12.65;9.68;;;;;;;27.46;45.63;99211.25;4358885;32;34744;-74
2022/08/19 01:19:33;;;;;;;11.63;9.27;;;;;;;27.36;46.11;99213.09;4367476;32;35045;-73
2022/08/19 01:22:30;;;;;;;11.77;9.38;;;;;;;27.30;45.83;99217.63;4357336;32;34544;-73
2022/08/19 01:25:34;;;;;;;10.20;8.95;;;;;;;27.63;45.19;99216.91;4355464;32;34925;-74
2022/08/19 01:28:26;;;;;;;12.82;9.40;;;;;;;27.55;45.12;99216.28;4362743;32;34671;-73
2022/08/19 01:31:30;;;;;;;17.42;9.85;;;;;;;27.39;45.81;99200.16;4356641;32;34219;-73
2022/08/19 01:34:19;;;;;;;11.77;8.95;;;;;;;27.29;45.72;99204.00;4362077;32;35624;-73
2022/08/19 01:37:07;;;;;;;12.88;9.15;;;;;;;27.69;44.83;99204.72;4360513;32;35033;-74
2022/08/19 01:39:54;;;;;;;12.43;10.00;;;;;;;27.10;46.34;99197.94;4362149;32;34767;-73
2022/08/19 01:42:41;;;;;;;12.35;9.00;;;;;;;26.94;46.92;99202.72;4368475;32;34186;-73
2022/08/19 01:45:28;;;;;;;15.65;9.52;;;;;;;27.15;46.07;99185.37;4359769;32;34383;-74
2022/08/19 01:48:15;;;;;;;16.10;10.18;;;;;;;27.18;46.63;99184.56;4362182;32;35026;-73
2022/08/19 01:51:01;;;;;;;11.45;9.15;;;;;;;27.21;46.72;99183.69;4366407;32;34704;-73
2022/08/19 01:53:49;;;;;;;13.80;9.27;;;;;;;27.18;46.40;99180.94;4352221;32;33768;-73
2022/08/19 01:56:35;;;;;;;12.57;9.23;;;;;;;27.19;46.10;99174.91;4362599;32;34710;-73
2022/08/19 01:59:22;;;;;;;14.68;9.85;;;;;;;27.25;45.99;99169.53;4361846;32;34978;-73
2022/08/19 02:02:09;;;;;;;12.18;8.95;;;;;;;27.30;45.58;99164.19;4357242;32;34908;-73
2022/08/19 02:04:55;;;;;;;13.27;9.38;;;;;;;27.12;46.38;99155.31;4362371;32;34043;-73
2022/08/19 02:07:41;;;;;;;10.75;8.95;;;;;;;26.67;47.57;99158.69;4362309;32;34621;-74
2022/08/19 02:10:28;;;;;;;14.52;8.90;;;;;;;26.85;47.64;99166.75;4361550;32;34932;-73
2022/08/19 02:13:14;;;;;;;12.82;9.45;;;;;;;27.08;46.58;99166.66;4367502;32;34454;-73
2022/08/19 02:16:07;;;;;;;14.23;9.77;;;;;;;27.25;46.01;99159.09;4352798;32;35176;-73
2022/08/19 02:18:56;;;;;;;13.48;8.77;;;;;;;26.92;47.22;99163.78;4361915;32;34482;-73
2022/08/19 02:21:43;;;;;;;11.65;9.35;;;;;;;27.32;45.91;99166.56;4356609;32;34947;-73
2022/08/19 02:24:29;;;;;;;13.13;9.70;;;;;;;27.18;46.21;99153.63;4361969;32;35630;-73
2022/08/19 02:27:16;;;;;;;15.02;9.93;;;;;;;26.98;46.92;99136.78;4362726;32;35069;-73
2022/08/19 02:30:04;;;;;;;18.48;9.63;;;;;;;27.05;46.56;99144.25;4365829;32;34222;-73
2022/08/19 02:32:51;;;;;;;12.95;9.35;;;;;;;27.02;47.11;99142.31;4366255;32;35909;-73
2022/08/19 02:35:42;;;;;;;12.27;9.10;;;;;;;26.83;47.62;99146.72;4367177;32;33464;-73
2022/08/19 02:38:28;;;;;;;10.93;9.48;;;;;;;26.99;47.11;99160.84;4352328;32;35171;-73
2022/08/19 02:41:20;;;;;;;11.32;9.30;;;;;;;27.12;46.47;99160.94;4361868;32;34300;-73
2022/08/19 02:44:08;;;;;;;11.07;9.05;;;;;;;26.43;48.34;99155.87;4355094;32;34929;-73
2022/08/19 02:47:15;;;;;;;11.25;9.35;;;;;;;26.82;47.43;99162.78;4361299;32;34658;-73
2022/08/19 02:50:02;;;;;;;13.00;10.43;;;;;;;27.03;46.56;99164.34;4351874;32;35146;-73
2022/08/19 02:52:49;;;;;;;11.20;9.70;;;;;;;26.91;46.68;99170.63;4355023;32;34649;-73
2022/08/19 02:55:35;;;;;;;12.05;8.88;;;;;;;26.99;46.34;99174.09;4360846;32;35997;-73
2022/08/19 02:58:31;;;;;;;10.20;8.07;;;;;;;27.10;46.43;99174.66;4361731;32;34868;-73
2022/08/19 03:01:29;;;;;;;13.27;9.25;;;;;;;27.09;46.26;99176.66;4361969;32;34937;-73
2022/08/19 03:04:16;;;;;;;12.50;9.23;;;;;;;26.89;46.71;99178.69;4366018;32;34621;-73
2022/08/19 03:07:03;;;;;;;9.98;8.90;;;;;;;26.84;47.00;99171.59;4361683;32;36056;-73
2022/08/19 03:09:55;;;;;;;12.00;9.15;;;;;;;27.01;46.55;99174.44;4361987;32;34370;-73
2022/08/19 03:12:42;;;;;;;14.40;9.38;;;;;;;26.83;46.84;99186.84;4363071;32;34209;-73
2022/08/19 03:15:28;;;;;;;14.05;9.57;;;;;;;26.74;48.08;99192.25;4361434;32;34612;-73
2022/08/19 03:18:16;;;;;;;12.23;9.63;;;;;;;26.80;47.13;99190.53;4361160;32;35090;-73
2022/08/19 03:21:03;;;;;;;12.02;9.38;;;;;;;26.80;47.25;99198.97;4352994;32;34643;-73
2022/08/19 03:23:53;;;;;;;11.60;9.23;;;;;;;26.75;47.13;99202.25;4361340;32;34168;-73
2022/08/19 03:26:41;;;;;;;12.27;9.48;;;;;;;26.75;47.05;99191.03;4360356;32;34668;-73
2022/08/19 03:29:31;;;;;;;10.90;8.98;;;;;;;26.82;47.32;99207.75;4360407;32;34625;-73
2022/08/19 03:32:17;;;;;;;13.52;9.88;;;;;;;26.72;47.72;99203.13;4355501;32;34681;-73
2022/08/19 03:35:20;;;;;;;12.60;9.00;;;;;;;26.45;48.29;99209.63;4361085;32;35088;-73
2022/08/19 03:38:06;;;;;;;10.23;8.70;;;;;;;26.69;47.66;99201.19;4360831;32;34843;-73
2022/08/19 03:40:52;;;;;;;13.82;9.63;;;;;;;26.61;48.00;99203.34;4362041;32;35899;-73
2022/08/19 03:43:40;;;;;;;13.40;9.90;;;;;;;26.60;48.12;99200.97;4361310;32;34742;-74
2022/08/19 03:46:29;;;;;;;12.85;9.90;;;;;;;26.73;47.65;99207.53;4354228;32;34174;-74
2022/08/19 03:49:15;;;;;;;12.00;8.73;;;;;;;26.69;47.77;99220.84;4354303;32;35540;-72
2022/08/19 03:52:07;;;;;;;13.88;10.40;;;;;;;26.54;48.74;99223.16;4359972;32;35976;-71
2022/08/19 03:54:59;;;;;;;11.23;9.48;;;;;;;26.69;47.93;99218.03;4350547;32;34884;-72
2022/08/19 03:57:48;;;;;;;13.50;9.32;;;;;;;26.32;48.79;99217.09;4359763;32;35529;-71
2022/08/19 04:00:35;;;;;;;11.75;9.55;;;;;;;26.45;48.66;99209.63;4361777;32;34265;-72
2022/08/19 04:03:23;;;;;;;13.23;9.25;;;;;;;26.63;47.98;99220.56;4361115;32;36077;-71
2022/08/19 04:06:15;;;;;;;13.52;9.05;;;;;;;26.47;49.26;99220.44;4362694;32;35553;-72
2022/08/19 04:09:04;;;;;;;12.37;9.18;;;;;;;26.28;49.36;99230.41;4362626;32;34993;-72
2022/08/19 04:11:56;;;;;;;15.00;10.32;;;;;;;26.05;50.36;99233.22;4360961;32;35472;-72
2022/08/19 04:14:43;;;;;;;15.98;9.23;;;;;;;26.43;49.00;99236.56;4357087;32;34951;-72
2022/08/19 04:17:29;;;;;;;12.00;9.07;;;;;;;26.38;49.09;99242.66;4367346;32;34684;-72
2022/08/19 04:20:15;;;;;;;14.48;9.75;;;;;;;26.32;49.11;99233.16;4362958;32;34149;-72
2022/08/19 04:23:02;;;;;;;14.18;10.15;;;;;;;26.50;48.79;99235.62;4365837;32;35513;-72
2022/08/19 04:25:48;;;;;;;12.48;9.68;;;;;;;26.61;48.62;99236.25;4362550;32;34752;-71
2022/08/19 04:28:35;;;;;;;10.82;9.27;;;;;;;26.64;48.41;99236.22;4364312;32;35111;-72
2022/08/19 04:31:25;;;;;;;13.52;9.60;;;;;;;26.58;48.79;99242.72;4361084;32;34275;-71
2022/08/19 04:34:15;;;;;;;15.13;9.48;;;;;;;26.61;48.82;99239.06;4360877;32;34731;-71
2022/08/19 04:37:11;;;;;;;13.38;9.63;;;;;;;26.55;49.27;99240.78;4362627;32;35669;-71
2022/08/19 04:43:02;;;;;;;14.82;9.68;;;;;;;26.07;51.21;99241.97;4362378;32;35054;-72
2022/08/19 04:45:51;;;;;;;13.32;9.95;;;;;;;26.45;49.45;99245.34;4362464;32;34703;-72
2022/08/19 04:48:46;;;;;;;12.68;8.70;;;;;;;26.28;50.36;99238.81;4361644;32;35089;-71
2022/08/19 04:51:36;;;;;;;15.10;9.40;;;;;;;26.51;49.27;99243.66;4361529;32;35652;-72
2022/08/19 04:54:24;;;;;;;12.90;9.48;;;;;;;26.51;49.68;99252.09;4360171;32;34419;-71
2022/08/19 04:57:24;;;;;;;12.13;9.77;;;;;;;26.10;51.15;99252.34;4355746;32;35504;-72
2022/08/19 05:00:11;;;;;;;13.52;9.82;;;;;;;26.23;51.12;99253.34;4361766;32;36124;-73
2022/08/19 05:02:57;;;;;;;13.65;9.82;;;;;;;26.35;50.08;99263.97;4360878;32;34744;-72
2022/08/19 05:05:49;;;;;;;15.07;9.45;;;;;;;26.64;49.55;99255.06;4362296;32;34204;-71
2022/08/19 05:08:37;;;;;;;12.35;8.82;;;;;;;26.25;51.00;99259.34;4359269;32;35553;-73
2022/08/19 05:11:26;;;;;;;16.50;10.30;;;;;;;26.56;49.61;99256.44;4358062;32;34973;-73
2022/08/19 05:14:12;;;;;;;13.00;9.30;;;;;;;26.31;50.93;99252.00;4346130;32;34207;-72
2022/08/19 05:17:00;;;;;;;17.00;9.43;;;;;;;26.42;51.32;99252.63;4348808;32;34290;-73
2022/08/19 05:23:15;;;;;;;13.43;9.63;;;;;;;26.89;49.18;99246.94;4356005;32;35975;-71
2022/08/19 05:26:10;;;;;;;14.65;9.18;;;;;;;26.55;50.24;99260.44;4360718;32;34141;-70
2022/08/19 05:28:56;;;;;;;12.00;9.13;;;;;;;26.62;50.42;99257.53;4353784;32;33941;-72
2022/08/19 05:31:43;;;;;;;13.27;9.57;;;;;;;26.84;49.78;99255.13;4354118;32;35478;-72
2022/08/19 05:34:29;;;;;;;13.80;9.40;;;;;;;26.33;50.63;99263.63;4348634;32;34482;-73
2022/08/19 05:37:16;;;;;;;15.32;9.65;;;;;;;26.92;49.55;99262.97;4358011;32;34201;-73
2022/08/19 05:40:03;;;;;;;14.10;8.77;;;;;;;27.05;49.21;99265.94;4358437;32;34196;-72
2022/08/19 05:42:50;;;;;;;15.65;8.55;;;;;;;26.41;51.85;99262.28;4358176;32;34750;-71
2022/08/19 05:45:41;;;;;;;14.57;9.20;;;;;;;26.91;49.89;99260.59;4357316;32;36011;-71
2022/08/19 05:48:28;;;;;;;13.55;9.38;;;;;;;27.35;48.79;99261.31;4356500;32;34371;-71
2022/08/19 05:51:15;;;;;;;12.18;9.30;;;;;;;27.53;47.17;99266.59;4357429;32;35083;-71
2022/08/19 05:54:04;;;;;;;12.05;8.55;;;;;;;27.14;48.64;99251.28;4348272;32;36526;-71
2022/08/19 05:56:51;;;;;;;12.07;8.88;;;;;;;27.31;48.77;99255.78;4344275;32;33899;-71
2022/08/19 05:59:37;;;;;;;13.02;9.05;;;;;;;27.48;47.40;99259.44;4354691;32;34264;-71
2022/08/19 06:02:30;;;;;;;10.35;8.40;;;;;;;27.24;48.04;99257.97;4357109;32;34845;-71
2022/08/19 06:05:17;;;;;;;10.68;8.50;;;;;;;27.13;48.37;99256.13;4356452;32;34594;-71
2022/08/19 06:08:04;;;;;;;12.70;8.90;;;;;;;27.23;47.91;99250.75;4358006;32;36045;-73
2022/08/19 06:10:50;;;;;;;17.27;9.05;;;;;;;27.14;47.63;99256.91;4357691;32;35478;-73
2022/08/19 06:13:37;;;;;;;12.93;8.15;;;;;;;27.45;46.91;99243.44;4356591;32;35115;-73
2022/08/19 06:16:23;;;;;;;12.82;8.27;;;;;;;27.31;46.75;99238.91;4355826;32;34700;-73
2022/08/19 06:19:13;;;;;;;11.60;8.50;;;;;;;27.40;47.02;99240.34;4357262;32;34886;-73
2022/08/19 06:22:00;;;;;;;13.48;8.75;;;;;;;27.74;45.85;99232.31;4344016;32;34330;-73
2022/08/19 06:24:47;;;;;;;14.27;8.73;;;;;;;27.59;46.05;99243.12;4357784;32;34819;-74
2022/08/19 06:27:33;;;;;;;11.18;8.70;;;;;;;27.57;46.42;99234.31;4347977;32;34602;-72
2022/08/19 06:30:20;;;;;;;10.40;8.15;;;;;;;27.72;46.14;99217.09;4357062;32;35032;-72
2022/08/19 06:33:06;;;;;;;14.95;8.32;;;;;;;27.64;46.34;99226.97;4357604;32;34695;-73
2022/08/19 06:35:53;;;;;;;14.15;9.02;;;;;;;27.89;45.24;99221.56;4357134;32;35169;-72
2022/08/19 06:38:39;;;;;;;13.75;8.02;;;;;;;27.96;45.66;99220.59;4353307;32;34544;-71
2022/08/19 06:41:26;;;;;;;13.05;8.90;;;;;;;27.92;45.37;99217.06;4352687;32;34930;-74
2022/08/19 06:44:13;;;;;;;13.60;8.48;;;;;;;28.03;45.27;99214.75;4344776;32;35826;-73
2022/08/19 06:47:02;;;;;;;16.15;8.95;;;;;;;28.09;45.19;99217.84;4356632;32;34933;-73
2022/08/19 06:50:02;;;;;;;12.83;8.67;;;;;;;27.92;44.86;99220.69;4355857;32;34732;-76
2022/08/19 06:52:51;;;;;;;13.82;7.78;;;;;;;28.38;44.50;99235.62;4357896;32;35582;-73
2022/08/19 06:55:39;;;;;;;11.75;8.27;;;;;;;28.45;45.22;99235.44;4361746;32;34636;-73
2022/08/19 06:58:25;;;;;;;12.57;8.48;;;;;;;28.78;43.32;99245.87;4353290;32;34215;-74
2022/08/19 07:01:16;;;;;;;13.62;7.97;;;;;;;28.89;43.27;99257.66;4355171;32;34386;-76
2022/08/19 07:04:05;;;;;;;12.15;8.00;;;;;;;29.00;42.95;99260.16;4354062;32;35030;-73
2022/08/19 07:06:58;;;;;;;10.70;8.07;;;;;;;28.81;43.84;99261.91;4357322;32;35665;-75
2022/08/19 07:10:05;;;;;;;15.68;8.40;;;;;;;28.90;43.15;99260.03;4348812;32;35335;-76
2022/08/19 07:12:53;;;;;;;14.45;8.60;;;;;;;28.90;42.89;99270.50;4354773;32;34133;-74
2022/08/19 07:15:39;;;;;;;12.02;7.85;;;;;;;29.10;43.40;99267.56;4344134;32;35995;-75
2022/08/19 07:18:26;;;;;;;13.13;8.00;;;;;;;29.61;42.05;99262.03;4350791;32;34711;-74
2022/08/19 07:21:19;;;;;;;15.38;8.07;;;;;;;29.51;41.93;99263.91;4350626;32;33684;-73
2022/08/19 07:24:05;;;;;;;14.25;9.25;;;;;;;29.90;40.84;99261.94;4346542;32;33439;-73
2022/08/19 07:26:54;;;;;;;15.02;8.15;;;;;;;29.85;41.61;99270.97;4355430;32;35913;-74
2022/08/19 07:29:41;;;;;;;13.20;8.38;;;;;;;29.99;41.27;99267.72;4354880;32;34618;-73
2022/08/19 07:32:27;;;;;;;11.15;7.80;;;;;;;30.04;40.13;99263.53;4354428;32;33817;-73
2022/08/19 07:35:14;;;;;;;12.45;8.13;;;;;;;30.38;39.60;99262.84;4356396;32;34735;-73
2022/08/19 07:38:02;;;;;;;11.63;8.32;;;;;;;30.54;39.79;99266.75;4354460;32;34319;-73
2022/08/19 07:40:51;;;;;;;15.65;8.80;;;;;;;30.31;40.47;99268.75;4354985;32;34823;-75
2022/08/19 07:43:38;;;;;;;12.48;8.00;;;;;;;30.60;40.19;99259.28;4356024;32;34386;-75
2022/08/19 07:46:24;;;;;;;13.15;7.85;;;;;;;30.47;39.77;99265.75;4352049;32;36525;-76
2022/08/19 07:49:19;;;;;;;11.45;8.23;;;;;;;30.66;40.13;99263.09;4354343;32;34946;-74
2022/08/19 07:52:07;;;;;;;13.82;8.15;;;;;;;31.23;38.32;99268.78;4346168;32;34920;-77
2022/08/19 07:54:53;;;;;;;12.30;7.57;;;;;;;31.05;38.09;99266.59;4346137;32;35015;-76
2022/08/19 07:57:40;;;;;;;11.05;8.23;;;;;;;30.62;38.53;99276.56;4357521;32;35478;-75
2022/08/19 08:00:26;;;;;;;14.43;8.35;;;;;;;31.56;36.71;99271.97;4357795;32;35801;-75
2022/08/19 08:03:15;;;;;;;13.27;7.40;;;;;;;31.29;37.20;99279.03;4353291;32;34681;-75
2022/08/19 08:09:20;;;;;;;13.77;8.23;;;;;;;31.15;38.73;99269.03;4355495;32;34707;-75
2022/08/19 08:12:13;;;;;;;14.60;7.32;;;;;;;31.75;35.96;99276.47;4355304;32;35019;-72
2022/08/19 08:15:20;;;;;;;11.15;7.60;;;;;;;31.95;34.73;99261.16;4356540;32;35479;-78
2022/08/19 08:18:11;;;;;;;10.68;7.20;;;;;;;31.92;35.49;99270.59;4356151;32;34008;-72
2022/08/19 08:20:59;;;;;;;12.80;7.12;;;;;;;32.17;34.85;99273.22;4354927;32;34357;-75
2022/08/19 08:23:46;;;;;;;10.63;7.18;;;;;;;32.57;34.35;99269.53;4358010;32;33883;-74
2022/08/19 08:26:32;;;;;;;9.65;6.75;;;;;;;32.61;33.21;99273.00;4357601;32;35180;-72
2022/08/19 08:29:19;;;;;;;12.57;6.90;;;;;;;32.41;33.67;99258.47;4352079;32;33730;-73
2022/08/19 08:32:06;;;;;;;10.45;6.80;;;;;;;32.54;32.25;99261.97;4357234;32;34432;-74
2022/08/19 08:34:59;;;;;;;10.10;7.60;;;;;;;32.34;33.74;99255.94;4357821;32;34972;-73
2022/08/19 08:37:49;;;;;;;12.05;7.07;;;;;;;32.60;32.75;99253.63;4355896;32;34954;-77
2022/08/19 08:40:48;;;;;;;10.63;7.12;;;;;;;32.97;31.79;99245.91;4357193;32;34224;-76
2022/08/19 08:43:37;;;;;;;14.18;7.80;;;;;;;32.95;31.44;99234.25;4348854;32;35434;-73
2022/08/19 08:46:34;;;;;;;10.43;7.07;;;;;;;33.06;31.16;99228.91;4358019;32;34169;-76
2022/08/19 08:49:28;;;;;;;11.40;6.72;;;;;;;33.32;30.69;99239.87;4343951;32;35546;-75
2022/08/19 08:52:27;;;;;;;10.23;6.70;;;;;;;33.02;30.89;99248.16;4351509;32;33448;-76
2022/08/19 08:55:21;;;;;;;8.70;7.05;;;;;;;32.73;31.20;99250.62;4356081;32;35694;-76
2022/08/19 08:58:20;;;;;;;12.05;7.32;;;;;;;33.56;30.27;99245.69;4339162;32;34994;-73
2022/08/19 09:01:10;;;;;;;9.95;7.05;;;;;;;33.65;30.94;99233.53;4347185;32;35302;-74
2022/08/19 09:03:56;;;;;;;9.63;7.05;;;;;;;34.06;30.66;99239.66;4356985;32;33752;-74
2022/08/19 09:06:53;;;;;;;11.75;7.35;;;;;;;33.98;29.92;99234.31;4352304;32;35986;-72
2022/08/19 09:09:43;;;;;;;10.50;6.80;;;;;;;34.38;29.15;99224.63;4356653;32;35663;-74
2022/08/19 09:12:53;;;;;;;11.25;7.07;;;;;;;34.39;29.22;99226.19;4344344;32;34551;-73
2022/08/19 09:15:51;;;;;;;12.65;6.62;;;;;;;34.14;29.73;99223.81;4355240;32;33908;-75
2022/08/19 09:18:53;;;;;;;10.18;7.03;;;;;;;34.35;28.52;99234.09;4358150;32;34722;-73
2022/08/19 09:21:39;;;;;;;10.45;7.28;;;;;;;34.38;29.27;99226.66;4349951;32;35578;-72
2022/08/19 09:24:26;;;;;;;9.35;7.25;;;;;;;34.59;27.99;99213.44;4358800;32;35549;-72
2022/08/19 09:27:16;;;;;;;10.07;7.25;;;;;;;34.58;28.18;99218.34;4358244;32;35031;-74
2022/08/19 09:30:06;;;;;;;10.55;7.22;;;;;;;34.93;27.92;99212.81;4356952;32;35544;-74
2022/08/19 09:32:53;;;;;;;11.55;7.35;;;;;;;35.08;27.13;99215.69;4353721;32;35791;-74
2022/08/19 09:35:39;;;;;;;9.25;6.68;;;;;;;35.25;27.30;99218.84;4362690;32;35291;-75
2022/08/19 09:38:40;;;;;;;8.75;6.43;;;;;;;35.20;26.74;99215.87;4354086;32;34439;-76
2022/08/19 09:41:29;;;;;;;9.57;6.62;;;;;;;35.45;26.16;99212.44;4358986;32;35367;-74
2022/08/19 09:44:15;;;;;;;15.98;7.05;;;;;;;35.07;27.08;99210.50;4354887;32;35585;-74
2022/08/19 09:47:04;;;;;;;10.70;7.30;;;;;;;35.33;26.98;99214.31;4353324;32;34718;-75
2022/08/19 09:49:50;;;;;;;11.10;6.95;;;;;;;35.42;26.28;99204.88;4355365;32;33012;-73
2022/08/19 09:52:37;;;;;;;9.90;7.32;;;;;;;35.69;27.06;99188.75;4354623;32;34302;-76
2022/08/19 09:55:24;;;;;;;7.68;6.65;;;;;;;35.65;27.02;99188.19;4356593;32;35034;-75
2022/08/19 09:58:17;;;;;;;11.52;7.55;;;;;;;35.42;28.05;99198.41;4355907;32;34707;-74
2022/08/19 10:01:19;;;;;;;13.00;7.28;;;;;;;35.71;27.22;99195.53;4356156;32;33703;-75
2022/08/19 10:04:09;;;;;;;9.43;7.68;;;;;;;35.27;27.58;99187.81;4352889;32;34748;-76
2022/08/19 10:07:05;;;;;;;12.00;7.20;;;;;;;35.73;27.87;99192.97;4354677;32;35045;-74
2022/08/19 10:09:51;;;;;;;12.48;7.37;;;;;;;36.03;27.95;99193.69;4355833;32;34658;-75
2022/08/19 10:12:38;;;;;;;14.57;7.50;;;;;;;36.33;26.52;99185.00;4356635;32;35182;-75
2022/08/19 10:15:24;;;;;;;10.70;7.28;;;;;;;36.60;25.96;99188.72;4362876;32;35048;-75
2022/08/19 10:18:17;;;;;;;9.30;6.93;;;;;;;36.78;25.42;99181.94;4354869;32;36305;-73
2022/08/19 10:21:11;;;;;;;9.73;6.60;;;;;;;36.63;25.39;99184.84;4353253;32;34706;-74
2022/08/19 10:23:59;;;;;;;11.82;7.10;;;;;;;36.97;25.57;99180.28;4343064;32;35113;-73
2022/08/19 10:26:48;;;;;;;9.40;6.87;;;;;;;36.94;25.45;99164.16;4355323;32;34724;-72
2022/08/19 10:29:44;;;;;;;8.93;6.70;;;;;;;36.55;26.24;99167.41;4355338;32;35931;-75
2022/08/19 10:32:32;;;;;;;9.00;6.95;;;;;;;36.99;24.78;99172.00;4355029;32;34847;-73
2022/08/19 10:35:20;;;;;;;8.48;6.47;;;;;;;36.98;24.66;99176.16;4353027;32;34017;-75
2022/08/19 10:38:07;;;;;;;11.27;7.10;;;;;;;37.09;24.97;99175.50;4356581;32;34238;-73
2022/08/19 10:40:55;;;;;;;10.77;7.45;;;;;;;37.02;25.23;99170.25;4356130;32;35013;-74
2022/08/19 10:43:42;;;;;;;10.18;7.28;;;;;;;37.41;24.06;99178.37;4358774;32;35466;-74
2022/08/19 10:46:32;;;;;;;11.15;6.80;;;;;;;37.95;23.11;99179.31;4367522;32;33767;-75
2022/08/19 10:49:19;;;;;;;10.05;6.78;;;;;;;37.89;23.67;99172.75;4362933;32;35346;-76
2022/08/19 10:58:26;;;;;;;10.02;7.80;;;;;;;38.32;22.83;99169.87;4357742;32;34226;-74
2022/08/19 11:01:12;;;;;;;13.45;6.85;;;;;;;38.76;22.26;99174.19;4356402;32;35533;-74
2022/08/19 11:04:00;;;;;;;7.82;6.60;;;;;;;38.63;22.07;99168.19;4356524;32;33685;-77
2022/08/19 11:06:48;;;;;;;14.80;7.97;;;;;;;39.22;21.66;99164.41;4356395;32;35577;-76
2022/08/19 11:09:40;;;;;;;13.23;8.07;;;;;;;39.17;21.50;99175.84;4356755;32;34305;-75
2022/08/19 11:12:27;;;;;;;11.88;10.68;;;;;;;38.51;22.47;99157.97;4346211;32;35466;-74
2022/08/19 11:15:14;;;;;;;12.75;9.38;;;;;;;39.13;21.31;99174.00;4346876;32;35895;-72
2022/08/19 11:18:00;;;;;;;13.77;9.55;;;;;;;39.31;20.89;99164.16;4354255;32;33503;-75
2022/08/19 11:20:46;;;;;;;11.63;9.43;;;;;;;39.60;20.17;99167.78;4354071;32;35057;-76
2022/08/19 11:23:33;;;;;;;13.27;11.50;;;;;;;39.23;21.31;99177.41;4353692;32;34734;-76
2022/08/19 11:26:21;;;;;;;17.25;15.45;;;;;;;39.19;21.19;99162.53;4359262;32;34604;-75
2022/08/19 11:29:11;;;;;;;23.85;21.33;;;;;;;38.93;21.32;99171.38;4360377;32;35840;-76
2022/08/19 11:31:57;;;;;;;23.33;19.65;;;;;;;39.28;20.70;99170.91;4353566;32;34434;-76
2022/08/19 11:34:43;;;;;;;24.42;21.85;;;;;;;39.96;20.04;99170.84;4355476;32;34660;-76
2022/08/19 11:37:30;;;;;;;22.08;19.30;;;;;;;39.57;20.93;99161.00;4356720;32;35136;-77
2022/08/19 11:40:16;;;;;;;22.62;16.58;;;;;;;39.77;20.52;99174.28;4354679;32;34721;-78
2022/08/19 11:43:03;;;;;;;17.17;15.23;;;;;;;39.62;20.82;99168.03;4360182;32;34207;-77
2022/08/19 11:45:49;;;;;;;16.95;15.00;;;;;;;40.37;20.16;99167.34;4358943;32;34354;-76
2022/08/19 11:48:36;;;;;;;16.25;14.55;;;;;;;39.17;20.59;99158.66;4359261;32;35022;-76
2022/08/19 11:51:27;;;;;;;18.58;14.93;;;;;;;40.50;19.81;99158.12;4361481;32;34647;-77
2022/08/19 11:54:14;;;;;;;19.87;17.73;;;;;;;40.63;19.02;99153.38;4355435;32;33067;-76
2022/08/19 11:57:03;;;;;;;19.42;17.42;;;;;;;40.21;20.22;99148.88;4340341;32;34288;-75
2022/08/19 11:59:52;;;;;;;20.85;18.10;;;;;;;39.87;20.66;99154.69;4352682;32;35706;-77
2022/08/19 12:02:39;;;;;;;20.37;18.40;;;;;;;39.76;20.75;99151.84;4356307;32;34631;-75
2022/08/19 12:05:26;;;;;;;22.83;19.92;;;;;;;40.19;21.41;99146.53;4356795;32;35124;-76
2022/08/19 12:08:15;;;;;;;21.85;19.60;;;;;;;39.83;20.11;99159.16;4354724;32;35279;-76
2022/08/19 12:11:02;;;;;;;21.27;19.20;;;;;;;39.59;20.71;99157.59;4359791;32;34612;-77
2022/08/19 12:13:48;;;;;;;20.40;16.73;;;;;;;39.51;20.52;99153.72;4352467;32;34581;-75
2022/08/19 12:16:35;;;;;;;17.92;15.35;;;;;;;39.26;21.38;99156.31;4354991;32;33686;-75
2022/08/19 12:19:25;;;;;;;21.20;15.70;;;;;;;38.78;21.32;99157.28;4345750;32;34584;-75
2022/08/19 12:22:12;;;;;;;18.08;15.70;;;;;;;39.48;21.65;99155.53;4355693;32;34625;-78
2022/08/19 12:24:58;;;;;;;24.55;17.02;;;;;;;39.12;21.18;99157.34;4353970;32;33662;-78
2022/08/19 12:27:44;;;;;;;20.92;15.50;;;;;;;39.96;20.43;99157.28;4356197;32;34999;-76
2022/08/19 12:30:42;;;;;;;17.60;14.00;;;;;;;39.73;20.50;99158.62;4359617;32;36289;-78
2022/08/19 12:33:28;;;;;;;22.30;14.00;;;;;;;39.21;20.54;99148.47;4357242;32;34393;-77
2022/08/19 12:36:15;;;;;;;29.73;15.40;;;;;;;39.11;20.57;99152.94;4353462;32;34382;-76
2022/08/19 12:39:03;;;;;;;19.02;11.85;;;;;;;38.43;21.78;99137.69;4345526;32;34334;-76
2022/08/19 12:41:49;;;;;;;13.00;8.43;;;;;;;38.98;21.72;99130.50;4354273;32;34509;-75
2022/08/19 12:44:40;;;;;;;;;;;;;;;39.68;20.64;99142.22;4352594;32;35507;-77
2022/08/19 12:47:27;;;;;;;11.43;7.18;;;;;;;40.06;19.70;99129.09;4360461;32;34447;-77
2022/08/19 12:50:14;;;;;;;11.35;6.30;;;;;;;39.79;21.38;99130.72;4357242;32;34777;-79
2022/08/19 12:53:00;;;;;;;12.50;7.15;;;;;;;39.74;20.71;99117.97;4356485;32;35267;-78
2022/08/19 12:55:46;;;;;;;12.23;6.20;;;;;;;39.96;19.48;99124.94;4357455;32;34591;-74
2022/08/19 12:58:34;;;;;;;14.63;5.97;;;;;;;39.98;19.38;99120.25;4357238;32;35469;-75
2022/08/19 13:01:20;;;;;;;11.12;5.68;;;;;;;40.43;19.30;99120.06;4351757;32;34211;-74
2022/08/19 13:04:08;;;;;;;11.80;5.75;;;;;;;41.21;18.52;99117.19;4357790;32;34621;-74
2022/08/19 13:06:54;;;;;;;10.65;6.00;;;;;;;40.25;19.32;99106.34;4358148;32;35497;-76
2022/08/19 13:09:42;;;;;;;10.88;6.05;;;;;;;40.15;19.45;99116.53;4358185;32;35484;-77
2022/08/19 13:12:28;;;;;;;10.80;5.62;;;;;;;40.43;19.35;99113.53;4356948;32;33959;-77
2022/08/19 13:15:19;;;;;;;9.88;5.45;;;;;;;39.60;19.90;99113.31;4349429;32;35070;-77
2022/08/19 13:18:10;;;;;;;10.85;5.80;;;;;;;39.59;20.11;99111.72;4351117;32;34999;-77
2022/08/19 13:20:56;;;;;;;12.93;6.32;;;;;;;39.37;20.69;99109.69;4356384;32;35487;-77